sensor_id;sensor_type;location;lat;lon;timestamp;P1;durP1;ratioP1;P2;durP2;ratioP2
14774;SDS011;7479;47.042;15.160;2023-03-19T06:47:34;19.33;;;13.77;;
14774;SDS011;7479;47.042;15.160;2023-03-19T06:52:28;21.30;;;13.47;;
14774;SDS011;7479;47.042;15.160;2023-03-19T06:57:21;24.77;;;16.40;;
14774;SDS011;7479;47.042;15.160;2023-03-19T07:02:15;20.67;;;14.37;;
14774;SDS011;7479;47.042;15.160;2023-03-19T07:07:10;25.33;;;15.33;;
14774;SDS011;7479;47.042;15.160;2023-03-19T07:12:04;19.57;;;14.00;;
14774;SDS011;7479;47.042;15.160;2023-03-19T07:16:58;20.37;;;14.47;;
14774;SDS011;7479;47.042;15.160;2023-03-19T07:21:52;19.43;;;14.53;;
14774;SDS011;7479;47.042;15.160;2023-03-19T07:26:47;27.83;;;17.17;;
14774;SDS011;7479;47.042;15.160;2023-03-19T07:31:40;19.87;;;14.17;;
14774;SDS011;7479;47.042;15.160;2023-03-19T07:36:34;19.27;;;14.33;;
14774;SDS011;7479;47.042;15.160;2023-03-19T07:41:28;21.27;;;14.10;;
14774;SDS011;7479;47.042;15.160;2023-03-19T07:46:23;21.57;;;13.03;;
14774;SDS011;7479;47.042;15.160;2023-03-19T07:51:17;17.30;;;12.30;;
14774;SDS011;7479;47.042;15.160;2023-03-19T07:56:10;18.97;;;13.20;;
14774;SDS011;7479;47.042;15.160;2023-03-19T08:01:04;18.30;;;13.13;;
14774;SDS011;7479;47.042;15.160;2023-03-19T08:06:00;19.30;;;12.13;;
14774;SDS011;7479;47.042;15.160;2023-03-19T08:10:54;19.63;;;13.17;;
14774;SDS011;7479;47.042;15.160;2023-03-19T08:15:48;15.93;;;12.10;;
14774;SDS011;7479;47.042;15.160;2023-03-19T08:20:44;16.33;;;11.57;;
14774;SDS011;7479;47.042;15.160;2023-03-19T08:25:39;16.30;;;11.20;;
14774;SDS011;7479;47.042;15.160;2023-03-19T08:30:33;13.87;;;11.40;;
14774;SDS011;7479;47.042;15.160;2023-03-19T08:35:27;14.47;;;10.87;;
14774;SDS011;7479;47.042;15.160;2023-03-19T08:40:21;17.23;;;10.33;;
14774;SDS011;7479;47.042;15.160;2023-03-19T08:45:17;13.60;;;10.57;;
14774;SDS011;7479;47.042;15.160;2023-03-19T08:50:11;14.43;;;10.30;;
14774;SDS011;7479;47.042;15.160;2023-03-19T08:55:05;12.50;;;9.60;;
14774;SDS011;7479;47.042;15.160;2023-03-19T09:00:00;16.13;;;11.00;;
14774;SDS011;7479;47.042;15.160;2023-03-19T09:04:57;14.67;;;11.07;;
14774;SDS011;7479;47.042;15.160;2023-03-19T09:09:50;15.57;;;11.20;;
14774;SDS011;7479;47.042;15.160;2023-03-19T09:14:44;16.07;;;11.13;;
14774;SDS011;7479;47.042;15.160;2023-03-19T09:19:38;15.87;;;11.43;;
14774;SDS011;7479;47.042;15.160;2023-03-19T09:24:33;16.60;;;10.83;;
14774;SDS011;7479;47.042;15.160;2023-03-19T09:29:30;14.70;;;11.17;;
14774;SDS011;7479;47.042;15.160;2023-03-19T09:34:24;15.70;;;11.53;;
14774;SDS011;7479;47.042;15.160;2023-03-19T09:39:17;15.70;;;12.00;;
14774;SDS011;7479;47.042;15.160;2023-03-19T09:44:12;15.30;;;11.10;;
14774;SDS011;7479;47.042;15.160;2023-03-19T09:49:13;13.90;;;10.03;;
14774;SDS011;7479;47.042;15.160;2023-03-19T09:54:19;12.93;;;9.97;;
14774;SDS011;7479;47.042;15.160;2023-03-19T09:59:20;15.13;;;10.10;;
14774;SDS011;7479;47.042;15.160;2023-03-19T10:04:18;14.93;;;10.10;;
14774;SDS011;7479;47.042;15.160;2023-03-19T10:14:53;10.77;;;8.83;;
14774;SDS011;7479;47.042;15.160;2023-03-19T10:20:07;12.17;;;9.53;;
14774;SDS011;7479;47.042;15.160;2023-03-19T10:25:08;13.53;;;10.27;;
14774;SDS011;7479;47.042;15.160;2023-03-19T10:30:12;12.87;;;9.77;;
14774;SDS011;7479;47.042;15.160;2023-03-19T10:35:11;13.40;;;10.93;;
14774;SDS011;7479;47.042;15.160;2023-03-19T10:40:13;14.93;;;10.00;;
14774;SDS011;7479;47.042;15.160;2023-03-19T10:45:18;16.77;;;11.13;;
14774;SDS011;7479;47.042;15.160;2023-03-19T10:50:19;16.87;;;11.10;;
14774;SDS011;7479;47.042;15.160;2023-03-19T10:55:16;16.60;;;11.07;;
14774;SDS011;7479;47.042;15.160;2023-03-19T11:00:15;15.80;;;10.63;;
14774;SDS011;7479;47.042;15.160;2023-03-19T11:05:21;14.50;;;11.03;;
14774;SDS011;7479;47.042;15.160;2023-03-19T11:10:16;14.53;;;10.43;;
14774;SDS011;7479;47.042;15.160;2023-03-19T11:15:15;15.43;;;10.80;;
14774;SDS011;7479;47.042;15.160;2023-03-19T11:20:18;15.43;;;10.57;;
14774;SDS011;7479;47.042;15.160;2023-03-19T11:25:16;11.20;;;9.93;;
14774;SDS011;7479;47.042;15.160;2023-03-19T11:30:16;14.60;;;9.90;;
14774;SDS011;7479;47.042;15.160;2023-03-19T11:35:14;19.92;;;13.98;;
14774;SDS011;7479;47.042;15.160;2023-03-19T11:40:15;16.20;;;11.13;;
14774;SDS011;7479;47.042;15.160;2023-03-19T11:45:20;16.52;;;11.25;;
14774;SDS011;7479;47.042;15.160;2023-03-19T11:50:25;16.00;;;11.57;;
14774;SDS011;7479;47.042;15.160;2023-03-19T11:55:27;16.52;;;12.07;;
14774;SDS011;7479;47.042;15.160;2023-03-19T12:00:28;15.52;;;12.05;;
14774;SDS011;7479;47.042;15.160;2023-03-19T12:05:29;16.45;;;12.05;;
14774;SDS011;7479;47.042;15.160;2023-03-19T12:10:26;16.73;;;12.10;;
14774;SDS011;7479;47.042;15.160;2023-03-19T12:15:26;13.65;;;11.15;;
14774;SDS011;7479;47.042;15.160;2023-03-19T12:20:30;16.88;;;11.50;;
14774;SDS011;7479;47.042;15.160;2023-03-19T12:25:34;14.00;;;10.73;;
14774;SDS011;7479;47.042;15.160;2023-03-19T12:30:47;14.30;;;10.70;;
14774;SDS011;7479;47.042;15.160;2023-03-19T12:35:54;13.43;;;10.70;;
14774;SDS011;7479;47.042;15.160;2023-03-19T12:40:50;16.35;;;10.38;;
14774;SDS011;7479;47.042;15.160;2023-03-19T12:45:49;12.32;;;10.35;;
14774;SDS011;7479;47.042;15.160;2023-03-19T12:50:51;17.52;;;11.20;;
14774;SDS011;7479;47.042;15.160;2023-03-19T12:55:48;13.63;;;10.52;;
14774;SDS011;7479;47.042;15.160;2023-03-19T13:00:51;15.57;;;11.13;;
14774;SDS011;7479;47.042;15.160;2023-03-19T13:05:56;15.52;;;11.07;;
14774;SDS011;7479;47.042;15.160;2023-03-19T13:10:53;14.10;;;10.60;;
14774;SDS011;7479;47.042;15.160;2023-03-19T13:15:47;20.83;;;12.00;;
14774;SDS011;7479;47.042;15.160;2023-03-19T13:20:50;14.07;;;11.10;;
14774;SDS011;7479;47.042;15.160;2023-03-19T13:26:00;14.38;;;11.07;;
14774;SDS011;7479;47.042;15.160;2023-03-19T13:30:58;15.32;;;11.25;;
14774;SDS011;7479;47.042;15.160;2023-03-19T13:35:53;14.98;;;10.88;;
14774;SDS011;7479;47.042;15.160;2023-03-19T13:40:50;15.63;;;10.95;;
14774;SDS011;7479;47.042;15.160;2023-03-19T13:45:45;15.18;;;11.07;;
14774;SDS011;7479;47.042;15.160;2023-03-19T13:50:53;13.90;;;9.77;;
14774;SDS011;7479;47.042;15.160;2023-03-19T13:55:53;13.95;;;9.68;;
14774;SDS011;7479;47.042;15.160;2023-03-19T14:00:56;13.98;;;9.82;;
14774;SDS011;7479;47.042;15.160;2023-03-19T14:05:54;13.98;;;9.38;;
14774;SDS011;7479;47.042;15.160;2023-03-19T14:10:50;15.65;;;10.48;;
14774;SDS011;7479;47.042;15.160;2023-03-19T14:15:47;14.23;;;10.65;;
14774;SDS011;7479;47.042;15.160;2023-03-19T14:20:43;15.05;;;11.75;;
14774;SDS011;7479;47.042;15.160;2023-03-19T14:25:51;14.55;;;10.68;;
14774;SDS011;7479;47.042;15.160;2023-03-19T14:31:02;16.27;;;10.93;;
14774;SDS011;7479;47.042;15.160;2023-03-19T14:35:57;14.95;;;10.15;;
14774;SDS011;7479;47.042;15.160;2023-03-19T14:40:55;15.60;;;11.23;;
14774;SDS011;7479;47.042;15.160;2023-03-19T14:45:55;14.00;;;10.48;;
14774;SDS011;7479;47.042;15.160;2023-03-19T14:56:19;15.55;;;10.55;;
14774;SDS011;7479;47.042;15.160;2023-03-19T15:01:17;19.38;;;11.32;;
14774;SDS011;7479;47.042;15.160;2023-03-19T15:06:12;15.43;;;10.32;;
14774;SDS011;7479;47.042;15.160;2023-03-19T15:11:17;17.15;;;10.40;;
14774;SDS011;7479;47.042;15.160;2023-03-19T15:16:31;15.85;;;10.00;;
14774;SDS011;7479;47.042;15.160;2023-03-19T15:21:32;15.40;;;10.15;;
14774;SDS011;7479;47.042;15.160;2023-03-19T15:26:29;16.77;;;11.20;;
14774;SDS011;7479;47.042;15.160;2023-03-19T15:36:48;19.40;;;12.70;;
14774;SDS011;7479;47.042;15.160;2023-03-19T15:41:46;17.13;;;10.13;;
14774;SDS011;7479;47.042;15.160;2023-03-19T15:46:42;15.20;;;9.95;;
14774;SDS011;7479;47.042;15.160;2023-03-19T15:51:37;16.10;;;9.65;;
14774;SDS011;7479;47.042;15.160;2023-03-19T15:56:32;12.73;;;9.20;;
14774;SDS011;7479;47.042;15.160;2023-03-19T16:01:26;20.15;;;12.35;;
14774;SDS011;7479;47.042;15.160;2023-03-19T16:06:24;13.17;;;9.30;;
14774;SDS011;7479;47.042;15.160;2023-03-19T16:11:25;14.95;;;9.82;;
14774;SDS011;7479;47.042;15.160;2023-03-19T16:16:21;13.83;;;10.70;;
14774;SDS011;7479;47.042;15.160;2023-03-19T16:21:17;20.63;;;13.23;;
14774;SDS011;7479;47.042;15.160;2023-03-19T16:26:25;19.33;;;11.63;;
14774;SDS011;7479;47.042;15.160;2023-03-19T16:31:28;20.87;;;13.20;;
14774;SDS011;7479;47.042;15.160;2023-03-19T16:36:26;14.67;;;9.03;;
14774;SDS011;7479;47.042;15.160;2023-03-19T16:41:23;15.70;;;10.40;;
14774;SDS011;7479;47.042;15.160;2023-03-19T16:46:32;16.37;;;11.50;;
14774;SDS011;7479;47.042;15.160;2023-03-19T16:51:26;13.73;;;9.83;;
14774;SDS011;7479;47.042;15.160;2023-03-19T16:56:19;10.50;;;9.23;;
14774;SDS011;7479;47.042;15.160;2023-03-19T17:01:16;17.67;;;13.70;;
14774;SDS011;7479;47.042;15.160;2023-03-19T17:06:12;12.03;;;9.80;;
14774;SDS011;7479;47.042;15.160;2023-03-19T17:11:08;15.10;;;9.83;;
14774;SDS011;7479;47.042;15.160;2023-03-19T17:16:10;15.30;;;11.60;;
14774;SDS011;7479;47.042;15.160;2023-03-19T17:21:07;15.23;;;11.23;;
14774;SDS011;7479;47.042;15.160;2023-03-19T17:26:04;15.90;;;11.50;;
14774;SDS011;7479;47.042;15.160;2023-03-19T17:31:07;20.50;;;13.13;;
14774;SDS011;7479;47.042;15.160;2023-03-19T17:36:13;29.77;;;19.57;;
14774;SDS011;7479;47.042;15.160;2023-03-19T17:41:08;34.07;;;21.07;;
14774;SDS011;7479;47.042;15.160;2023-03-19T17:46:05;22.17;;;14.90;;
